createdAt,value
2022-08-03T00:01:56.851Z,17.96
2022-08-03T00:06:59.468Z,17.96
2022-08-03T00:12:02.274Z,17.83
2022-08-03T00:17:05.036Z,17.63
2022-08-03T00:22:07.647Z,17.68
2022-08-03T00:27:10.056Z,17.49
2022-08-03T00:32:12.728Z,17.53
2022-08-03T00:37:16.333Z,17.26
2022-08-03T00:42:20.404Z,17.29
2022-08-03T00:47:22.846Z,17.49
2022-08-03T00:52:25.299Z,17.38
2022-08-03T00:57:28.667Z,17.43
2022-08-03T01:02:31.440Z,17.65
2022-08-03T01:07:58.712Z,17.71
2022-08-03T01:14:01.102Z,17.63
2022-08-03T01:19:08.553Z,17.65
2022-08-03T01:24:22.699Z,17.60
2022-08-03T01:29:45.674Z,17.48
2022-08-03T01:34:53.583Z,17.45
2022-08-03T01:39:59.660Z,17.64
2022-08-03T01:45:02.880Z,17.62
2022-08-03T01:50:06.281Z,17.61
2022-08-03T01:55:10.513Z,17.69
2022-08-03T02:00:13.914Z,17.80
2022-08-03T02:05:20.746Z,17.82
2022-08-03T02:10:35.430Z,17.83
2022-08-03T02:15:38.748Z,17.79
2022-08-03T02:20:42.737Z,18.04
2022-08-03T02:25:48.141Z,18.12
2022-08-03T02:30:55.361Z,17.90
2022-08-03T02:35:58.821Z,17.92
2022-08-03T02:41:02.488Z,17.93
2022-08-03T02:46:07.049Z,18.13
2022-08-03T02:51:10.193Z,18.14
2022-08-03T02:56:14.420Z,18.06
2022-08-03T03:01:20.709Z,18.02
2022-08-03T03:06:24.908Z,17.92
2022-08-03T03:11:33.043Z,18.07
2022-08-03T03:16:37.330Z,18.19
2022-08-03T03:21:40.753Z,17.97
2022-08-03T03:26:44.324Z,18.04
2022-08-03T03:31:47.119Z,18.08
2022-08-03T03:36:50.214Z,17.99
2022-08-03T03:41:53.651Z,18.01
2022-08-03T03:47:01.209Z,18.18
2022-08-03T03:52:04.363Z,18.12
2022-08-03T03:57:07.301Z,18.28
2022-08-03T04:02:13.296Z,18.40
2022-08-03T04:07:34.332Z,18.68
2022-08-03T04:12:37.908Z,18.66
2022-08-03T04:17:54.968Z,18.90
2022-08-03T04:23:00.383Z,19.73
2022-08-03T04:28:29.531Z,19.99
2022-08-03T04:33:29.673Z,20.09
2022-08-03T04:38:38.339Z,20.28
2022-08-03T04:43:42.347Z,20.72
2022-08-03T04:48:46.499Z,21.43
2022-08-03T04:53:49.398Z,21.64
2022-08-03T04:58:52.251Z,21.58
2022-08-03T05:03:55.911Z,22.50
2022-08-03T05:08:58.825Z,21.93
2022-08-03T05:14:01.595Z,22.76
2022-08-03T05:19:04.835Z,23.32
2022-08-03T05:24:09.936Z,23.12
2022-08-03T05:29:12.345Z,23.19
2022-08-03T05:34:15.647Z,23.18
2022-08-03T05:39:18.512Z,23.25
2022-08-03T05:44:22.304Z,23.60
2022-08-03T05:49:24.985Z,23.56
2022-08-03T05:54:55.985Z,23.29
2022-08-03T05:59:54.542Z,23.38
2022-08-03T06:05:02.887Z,23.58
2022-08-03T06:10:37.320Z,23.52
2022-08-03T06:15:30.976Z,23.66
2022-08-03T06:20:33.578Z,23.81
2022-08-03T06:25:39.538Z,24.03
2022-08-03T06:30:43.253Z,24.12
2022-08-03T06:35:45.849Z,24.11
2022-08-03T06:40:48.998Z,24.65
2022-08-03T06:45:54.541Z,24.88
2022-08-03T06:50:57.222Z,24.99
2022-08-03T06:56:01.271Z,24.82
2022-08-03T07:01:04.844Z,24.68
2022-08-03T07:06:08.023Z,25.71
2022-08-03T07:11:10.782Z,26.29
2022-08-03T07:16:14.102Z,26.76
2022-08-03T07:21:17.334Z,26.58
2022-08-03T07:26:19.995Z,26.63
2022-08-03T07:31:22.658Z,26.71
2022-08-03T07:36:25.504Z,27.02
2022-08-03T07:44:11.181Z,26.92
2022-08-03T07:49:18.031Z,27.24
2022-08-03T07:54:26.918Z,27.49
2022-08-03T07:59:30.713Z,27.41
2022-08-03T08:04:54.917Z,27.34
2022-08-03T08:10:01.212Z,27.31
2022-08-03T08:15:05.627Z,27.51
2022-08-03T08:20:09.926Z,27.84
2022-08-03T08:25:13.073Z,28.18
2022-08-03T08:30:19.502Z,28.25
2022-08-03T08:35:22.385Z,28.15
2022-08-03T08:40:25.246Z,28.25
2022-08-03T08:45:28.009Z,28.27
2022-08-03T08:50:35.644Z,28.41
2022-08-03T08:55:59.470Z,28.63
2022-08-03T09:01:02.466Z,28.66
2022-08-03T09:06:05.815Z,28.74
2022-08-03T09:11:08.705Z,28.87
2022-08-03T09:16:16.721Z,28.88
2022-08-03T09:21:34.524Z,28.85
2022-08-03T09:26:38.540Z,29.19
2022-08-03T09:31:45.316Z,29.37
2022-08-03T09:36:49.958Z,29.20
2022-08-03T09:42:10.051Z,29.29
2022-08-03T09:47:15.452Z,29.51
2022-08-03T09:52:39.393Z,29.86
2022-08-03T09:57:46.574Z,29.57
2022-08-03T10:02:50.767Z,30.08
2022-08-03T10:07:53.686Z,30.34
2022-08-03T10:12:56.712Z,30.12
2022-08-03T10:17:59.797Z,30.62
2022-08-03T10:23:03.223Z,30.33
2022-08-03T10:28:07.353Z,30.22
2022-08-03T10:33:51.440Z,30.61
2022-08-03T10:38:53.109Z,30.76
2022-08-03T10:43:58.996Z,30.80
2022-08-03T10:49:01.990Z,31.05
2022-08-03T10:54:05.028Z,31.15
2022-08-03T10:59:08.783Z,30.74
2022-08-03T11:04:17.077Z,30.51
2022-08-03T11:09:20.462Z,30.49
2022-08-03T11:14:24.151Z,30.51
2022-08-03T11:19:57.477Z,30.77
2022-08-03T11:25:00.747Z,31.06
2022-08-03T11:30:18.490Z,31.37
2022-08-03T11:35:24.073Z,31.64
2022-08-03T11:40:49.455Z,31.68
2022-08-03T11:46:28.174Z,31.62
2022-08-03T11:51:32.366Z,31.57
2022-08-03T11:56:48.122Z,32.05
2022-08-03T12:01:51.407Z,32.04
2022-08-03T12:07:01.562Z,32.23
2022-08-03T12:12:04.391Z,32.10
2022-08-03T12:17:07.146Z,32.07
2022-08-03T12:22:11.532Z,32.00
2022-08-03T12:27:23.808Z,31.89
2022-08-03T12:32:30.806Z,32.10
2022-08-03T12:37:34.612Z,32.32
2022-08-03T12:42:39.984Z,31.72
2022-08-03T12:47:57.052Z,32.14
2022-08-03T12:53:01.867Z,32.31
2022-08-03T12:58:14.654Z,32.24
2022-08-03T13:03:38.829Z,32.11
2022-08-03T13:08:44.500Z,32.13
2022-08-03T13:13:47.663Z,32.08
2022-08-03T13:18:51.695Z,31.97
2022-08-03T13:23:54.364Z,31.97
2022-08-03T13:28:57.249Z,31.96
2022-08-03T13:33:59.789Z,32.16
2022-08-03T13:39:02.555Z,32.26
2022-08-03T13:44:26.685Z,32.22
2022-08-03T13:49:30.364Z,31.76
2022-08-03T13:54:34.197Z,32.22
2022-08-03T13:59:37.624Z,32.24
2022-08-03T14:04:42.235Z,32.30
2022-08-03T14:09:44.969Z,32.27
2022-08-03T14:14:47.769Z,32.30
2022-08-03T14:19:53.311Z,32.10
2022-08-03T14:24:58.283Z,32.26
2022-08-03T14:30:02.528Z,32.39
2022-08-03T14:35:05.681Z,32.34
2022-08-03T14:40:08.769Z,32.14
2022-08-03T14:45:20.013Z,32.34
2022-08-03T14:50:35.700Z,32.22
2022-08-03T14:55:49.529Z,32.13
2022-08-03T15:00:56.874Z,32.24
2022-08-03T15:05:59.474Z,32.25
2022-08-03T15:11:01.891Z,32.17
2022-08-03T15:16:08.953Z,32.02
2022-08-03T15:21:45.874Z,31.96
2022-08-03T15:26:39.394Z,31.95
2022-08-03T15:31:44.748Z,31.90
2022-08-03T15:36:47.707Z,31.88
2022-08-03T15:41:50.527Z,31.83
2022-08-03T15:46:54.051Z,31.80
2022-08-03T15:51:56.525Z,31.77
2022-08-03T15:56:59.448Z,31.62
2022-08-03T16:02:02.087Z,31.45
2022-08-03T16:07:05.166Z,31.57
2022-08-03T16:12:11.890Z,31.60
2022-08-03T16:17:18.743Z,31.60
2022-08-03T16:22:22.925Z,31.35
2022-08-03T16:27:56.663Z,31.23
2022-08-03T16:32:49.470Z,31.18
2022-08-03T16:37:56.110Z,31.08
2022-08-03T16:43:00.178Z,30.98
2022-08-03T16:48:05.571Z,30.90
2022-08-03T16:53:09.987Z,30.73
2022-08-03T16:58:12.698Z,30.62
2022-08-03T17:03:24.200Z,30.38
2022-08-03T17:08:28.075Z,30.16
2022-08-03T17:13:39.157Z,30.10
2022-08-03T17:18:56.374Z,29.79
2022-08-03T17:24:12.315Z,29.93
2022-08-03T17:29:18.873Z,30.08
2022-08-03T17:34:26.454Z,29.68
2022-08-03T17:39:55.857Z,28.86
2022-08-03T17:44:53.677Z,28.57
2022-08-03T17:49:59.532Z,28.21
2022-08-03T17:55:52.026Z,27.93
2022-08-03T18:01:57.063Z,27.66
2022-08-03T18:06:38.040Z,27.33
2022-08-03T18:12:00.726Z,27.06
2022-08-03T18:17:10.203Z,26.84
2022-08-03T18:22:14.459Z,26.57
2022-08-03T18:27:19.543Z,26.26
2022-08-03T18:32:27.503Z,26.10
2022-08-03T18:37:32.586Z,25.96
2022-08-03T18:42:55.048Z,25.77
2022-08-03T18:48:05.378Z,25.30
2022-08-03T18:54:03.266Z,25.30
2022-08-03T18:59:02.219Z,25.28
2022-08-03T19:04:26.902Z,25.14
2022-08-03T19:09:49.250Z,25.04
2022-08-03T19:14:56.565Z,24.84
2022-08-03T19:20:01.645Z,24.74
2022-08-03T19:25:06.438Z,24.73
2022-08-03T19:30:35.223Z,24.51
2022-08-03T19:35:55.450Z,24.51
2022-08-03T19:41:02.575Z,24.38
2022-08-03T19:46:12.565Z,24.23
2022-08-03T19:51:17.049Z,24.19
2022-08-03T19:56:24.735Z,24.11
2022-08-03T20:01:28.263Z,24.00
2022-08-03T20:06:31.188Z,23.94
2022-08-03T20:11:43.871Z,23.83
2022-08-03T20:16:49.118Z,23.86
2022-08-03T20:21:54.524Z,23.75
2022-08-03T20:26:58.337Z,23.72
2022-08-03T20:32:02.405Z,23.61
2022-08-03T20:37:05.197Z,23.54
2022-08-03T20:42:12.103Z,23.46
2022-08-03T20:47:23.797Z,23.44
2022-08-03T20:52:26.801Z,23.30
2022-08-03T20:57:33.151Z,23.32
2022-08-03T21:02:36.032Z,23.11
2022-08-03T21:08:05.189Z,23.10
2022-08-03T21:18:24.365Z,23.05
2022-08-03T21:23:39.858Z,22.92
2022-08-03T21:28:52.521Z,22.94
2022-08-03T21:33:56.810Z,22.81
2022-08-03T21:39:00.168Z,22.85
2022-08-03T21:44:03.081Z,22.75
2022-08-03T21:50:07.809Z,22.72
2022-08-03T21:54:37.815Z,22.58
2022-08-03T21:59:43.918Z,22.45
2022-08-03T22:04:55.047Z,22.41
2022-08-03T22:10:02.412Z,22.46
2022-08-03T22:15:08.463Z,22.40
2022-08-03T22:20:14.545Z,22.31
2022-08-03T22:25:21.123Z,22.27
2022-08-03T22:30:24.274Z,22.28
2022-08-03T22:35:28.163Z,22.30
2022-08-03T22:40:31.154Z,22.07
2022-08-03T22:45:45.545Z,22.08
2022-08-03T22:50:57.822Z,22.08
2022-08-03T22:56:00.585Z,22.11
2022-08-03T23:01:11.472Z,21.98
2022-08-03T23:06:15.785Z,21.89
2022-08-03T23:11:23.669Z,21.86
2022-08-03T23:16:28.567Z,21.80
2022-08-03T23:22:00.561Z,22.03
2022-08-03T23:26:56.872Z,21.96
2022-08-03T23:32:04.629Z,21.98
2022-08-03T23:37:07.641Z,21.83
2022-08-03T23:42:10.572Z,21.72
2022-08-03T23:47:14.349Z,21.56
2022-08-03T23:52:53.899Z,21.63
2022-08-03T23:58:38.376Z,21.54
